Time;durP1;ratioP1;P1;durP2;ratioP2;P2;SDS_P1;SDS_P2;PMS_P1;PMS_P2;Temp;Humidity;BMP_temperature;BMP_pressure;BME280_temperature;BME280_humidity;BME280_pressure;Samples;Min_cycle;Max_cycle;Signal;HPM_P1;HPM_P2
2023/03/27 00:00:15;;;;;;;4.47;0.38;;;;;;;1.04;46.82;101205.78;5034959;28;20028;-82
2023/03/27 00:02:41;;;;;;;2.67;0.40;;;;;;;1.07;47.00;101216.06;5035773;28;20048;-80
2023/03/27 00:05:09;;;;;;;2.60;0.10;;;;;;;1.09;46.57;101209.22;5050431;28;20632;-80
2023/03/27 00:07:40;;;;;;;2.90;0.20;;;;;;;1.43;45.87;101211.97;5016904;28;21588;-70
2023/03/27 00:10:06;;;;;;;3.33;0.40;;;;;;;1.32;45.78;101205.88;5038649;28;20036;-70
2023/03/27 00:12:32;;;;;;;2.72;0.50;;;;;;;1.13;45.68;101204.06;5045345;28;20032;-71
2023/03/27 00:15:01;;;;;;;8.18;0.30;;;;;;;1.35;44.75;101205.91;5023162;28;20046;-76
2023/03/27 00:17:26;;;;;;;5.60;0.32;;;;;;;1.04;44.50;101202.34;5053979;28;20048;-74
2023/03/27 00:19:52;;;;;;;1.52;0.10;;;;;;;1.12;44.05;101205.81;5051431;28;20491;-75
2023/03/27 00:22:18;;;;;;;6.20;0.43;;;;;;;1.04;43.26;101200.63;5036064;28;20042;-75
2023/03/27 00:24:44;;;;;;;2.08;0.00;;;;;;;1.13;42.81;101204.97;5049842;28;20133;-75
2023/03/27 00:27:10;;;;;;;4.53;0.43;;;;;;;1.11;42.74;101201.50;5047755;28;20532;-76
2023/03/27 00:29:37;;;;;;;1.23;0.10;;;;;;;1.09;42.57;101208.38;5037303;28;20033;-76
2023/03/27 00:32:03;;;;;;;1.85;0.10;;;;;;;0.98;42.84;101221.19;5047593;28;20082;-74
2023/03/27 00:34:30;;;;;;;2.80;0.20;;;;;;;0.20;45.65;101230.91;5046199;28;20037;-74
2023/03/27 00:36:56;;;;;;;3.40;0.40;;;;;;;0.67;46.07;101223.56;5019979;28;20110;-73
2023/03/27 00:39:22;;;;;;;3.08;0.10;;;;;;;-0.20;49.14;101230.53;5036776;28;20127;-76
2023/03/27 00:41:48;;;;;;;5.55;0.08;;;;;;;-0.06;48.68;101230.66;5050153;28;20037;-76
2023/03/27 00:44:33;;;;;;;0.88;0.10;;;;;;;-0.32;49.22;101233.84;5031903;28;20051;-72
2023/03/27 00:47:02;;;;;;;1.67;0.10;;;;;;;0.05;49.06;101234.19;5049684;28;20037;-72
2023/03/27 00:49:33;;;;;;;3.10;0.20;;;;;;;0.18;48.97;101228.31;5047066;28;20408;-72
2023/03/27 00:52:01;;;;;;;3.35;0.20;;;;;;;0.14;48.55;101234.28;5025843;28;20040;-75
2023/03/27 00:54:30;;;;;;;2.78;0.10;;;;;;;0.40;48.23;101231.09;5044220;28;20450;-75
2023/03/27 00:57:00;;;;;;;1.92;0.10;;;;;;;0.04;48.52;101227.34;5031398;28;20449;-73
2023/03/27 00:59:30;;;;;;;1.85;0.20;;;;;;;0.22;48.58;101227.50;5019520;28;20114;-72
2023/03/27 01:02:01;;;;;;;4.07;0.40;;;;;;;0.18;48.32;101230.03;5046938;28;20036;-72
2023/03/27 01:04:26;;;;;;;2.30;0.20;;;;;;;0.43;47.63;101231.97;5046137;28;20033;-73
2023/03/27 01:06:54;;;;;;;2.63;0.32;;;;;;;0.44;47.70;101232.84;5033430;28;20039;-72
2023/03/27 01:09:20;;;;;;;0.82;0.10;;;;;;;0.28;48.51;101229.28;5033512;28;20041;-73
2023/03/27 01:12:29;;;;;;;2.13;0.15;;;;;;;0.07;48.99;101240.22;5034947;28;20044;-73
2023/03/27 01:15:19;;;;;;;4.72;0.55;;;;;;;0.19;48.71;101240.34;5036009;28;20051;-73
2023/03/27 01:18:15;;;;;;;0.93;0.10;;;;;;;0.21;49.04;101236.09;5025028;28;20044;-75
2023/03/27 01:20:41;;;;;;;3.63;0.13;;;;;;;0.19;49.11;101248.06;5045011;28;20040;-75
2023/03/27 01:23:31;;;;;;;2.35;0.25;;;;;;;0.20;49.51;101247.19;5047327;28;20048;-74
2023/03/27 01:26:33;;;;;;;8.65;0.88;;;;;;;0.23;49.43;101249.81;5045758;28;20041;-73
2023/03/27 01:29:15;;;;;;;1.80;0.43;;;;;;;0.26;49.28;101256.69;5030874;28;20639;-74
2023/03/27 01:31:53;;;;;;;4.10;0.15;;;;;;;0.41;48.50;101258.50;5031590;28;20691;-73
2023/03/27 01:34:26;;;;;;;3.85;0.20;;;;;;;0.08;48.67;101259.94;5033968;28;20037;-73
2023/03/27 01:37:30;;;;;;;1.10;0.20;;;;;;;0.19;47.79;101258.34;5015614;28;20581;-73
2023/03/27 01:40:19;;;;;;;2.90;0.10;;;;;;;0.24;46.75;101251.53;5031070;28;20136;-73
2023/03/27 01:42:48;;;;;;;2.50;1.20;;;;;;;0.26;46.13;101256.69;5048093;28;20032;-74
2023/03/27 01:45:32;;;;;;;3.58;0.10;;;;;;;0.51;45.17;101250.03;5031909;28;20044;-73
2023/03/27 01:48:06;;;;;;;4.38;0.15;;;;;;;0.55;45.08;101249.22;5023477;28;20047;-74
2023/03/27 01:50:43;;;;;;;1.20;0.10;;;;;;;0.65;45.00;101248.41;5048314;28;20028;-73
2023/03/27 01:53:16;;;;;;;1.23;0.25;;;;;;;0.84;44.90;101248.56;5031301;28;20596;-74
2023/03/27 01:55:49;;;;;;;3.75;0.20;;;;;;;0.96;44.99;101248.63;5028802;28;20071;-73
2023/03/27 01:58:45;;;;;;;3.78;0.68;;;;;;;1.19;44.89;101255.59;5027487;28;20078;-73
2023/03/27 02:01:16;;;;;;;5.88;0.50;;;;;;;1.38;44.75;101251.41;5045221;28;20043;-71
2023/03/27 02:03:47;;;;;;;1.67;0.20;;;;;;;1.25;44.92;101250.50;5042580;28;20131;-70
2023/03/27 02:06:18;;;;;;;13.13;0.30;;;;;;;1.34;45.34;101254.84;5046213;28;21611;-70
2023/03/27 02:08:59;;;;;;;1.10;0.10;;;;;;;1.16;45.90;101255.59;5001709;28;20143;-71
2023/03/27 02:11:29;;;;;;;5.68;0.35;;;;;;;1.23;45.30;101254.78;5028390;28;20075;-75
2023/03/27 02:14:00;;;;;;;1.40;0.30;;;;;;;0.91;45.77;101260.63;5044815;28;20033;-70
2023/03/27 02:16:34;;;;;;;3.53;0.37;;;;;;;1.17;45.09;101257.31;5029926;28;20127;-70
2023/03/27 02:19:07;;;;;;;9.13;0.22;;;;;;;0.96;44.89;101266.63;5030909;28;20303;-71
2023/03/27 02:21:33;;;;;;;2.47;0.40;;;;;;;1.04;44.18;101261.56;5034091;28;20115;-70
2023/03/27 02:24:04;;;;;;;3.60;0.40;;;;;;;0.97;44.25;101263.22;5021930;28;21693;-70
2023/03/27 02:26:33;;;;;;;;;;;;;;;1.02;44.19;101271.84;5029107;28;20028;-70
2023/03/27 02:29:12;;;;;;;11.48;0.30;;;;;;;0.88;44.02;101270.88;5032293;28;20311;-69
2023/03/27 02:32:16;;;;;;;4.45;0.55;;;;;;;0.78;43.38;101269.09;5035262;28;20029;-70
2023/03/27 02:34:57;;;;;;;8.70;0.32;;;;;;;0.93;43.11;101274.34;5030990;28;20040;-69
2023/03/27 02:37:34;;;;;;;6.50;0.85;;;;;;;0.87;42.93;101274.31;5025906;28;20493;-68
2023/03/27 02:40:36;;;;;;;7.38;0.20;;;;;;;0.88;42.99;101276.91;5029371;28;20044;-72
2023/03/27 02:43:41;;;;;;;3.03;0.57;;;;;;;0.67;43.43;101282.75;4998296;28;20177;-70
2023/03/27 02:46:21;;;;;;;8.00;0.43;;;;;;;0.93;42.86;101284.66;5033561;28;20048;-72
2023/03/27 02:48:51;;;;;;;2.92;0.22;;;;;;;0.83;43.00;101288.00;5047859;28;20036;-72
2023/03/27 02:51:25;;;;;;;1.88;0.22;;;;;;;0.95;42.56;101288.09;5042534;28;20142;-73
2023/03/27 02:54:20;;;;;;;3.70;0.20;;;;;;;1.03;42.16;101288.13;5027476;28;20064;-72
2023/03/27 02:56:50;;;;;;;2.17;0.28;;;;;;;1.01;42.12;101288.13;5018564;28;20892;-71
2023/03/27 02:59:29;;;;;;;7.40;0.73;;;;;;;0.92;42.15;101293.22;5029330;28;20115;-72
2023/03/27 03:01:56;;;;;;;6.03;0.37;;;;;;;1.04;42.07;101288.16;5045008;28;20033;-71
2023/03/27 03:04:40;;;;;;;3.95;0.77;;;;;;;1.05;42.56;101291.59;5043719;28;20047;-72
2023/03/27 03:07:26;;;;;;;9.07;0.47;;;;;;;0.91;43.01;101304.38;5042425;28;20039;-72
2023/03/27 03:09:55;;;;;;;2.70;0.40;;;;;;;1.01;43.26;101306.13;5030754;28;20041;-73
2023/03/27 03:12:21;;;;;;;5.90;1.02;;;;;;;1.03;43.66;101301.84;5029698;28;20045;-72
2023/03/27 03:14:48;;;;;;;5.18;0.22;;;;;;;1.17;43.98;101298.50;5044271;28;20033;-71
2023/03/27 03:17:14;;;;;;;3.70;0.38;;;;;;;1.01;44.59;101306.13;5032002;28;20377;-72
2023/03/27 03:19:40;;;;;;;7.78;0.30;;;;;;;0.58;44.66;101312.69;5029217;28;20051;-72
2023/03/27 03:22:06;;;;;;;6.00;0.60;;;;;;;1.14;43.21;101311.38;5007671;28;20033;-71
2023/03/27 03:24:34;;;;;;;1.55;0.13;;;;;;;0.48;43.52;101309.19;5027572;28;20118;-72
2023/03/27 03:27:03;;;;;;;3.50;0.20;;;;;;;0.82;42.75;101312.03;5026706;28;20043;-71
2023/03/27 03:29:34;;;;;;;2.10;0.20;;;;;;;0.80;41.86;101318.88;5028672;28;20035;-72
2023/03/27 03:32:26;;;;;;;1.30;0.10;;;;;;;0.57;41.79;101322.13;5014022;28;20546;-72
2023/03/27 03:34:52;;;;;;;2.65;0.20;;;;;;;0.59;41.35;101324.69;5029263;28;20025;-71
2023/03/27 03:37:18;;;;;;;6.72;0.65;;;;;;;0.77;40.72;101326.53;5030332;28;20047;-72
2023/03/27 03:39:45;;;;;;;0.22;0.00;;;;;;;0.68;40.96;101335.94;5026085;28;20119;-71
2023/03/27 03:42:11;;;;;;;3.22;0.73;;;;;;;0.30;40.79;101326.97;5044366;28;20040;-71
2023/03/27 03:44:37;;;;;;;1.30;0.20;;;;;;;0.47;40.79;101328.00;5028586;28;20037;-72
2023/03/27 03:47:14;;;;;;;2.63;0.10;;;;;;;0.57;40.97;101342.69;5029064;28;20033;-71
2023/03/27 03:49:41;;;;;;;4.13;0.50;;;;;;;0.73;40.78;101340.25;5010452;28;20723;-74
2023/03/27 03:52:07;;;;;;;6.70;0.35;;;;;;;0.67;41.17;101346.19;5018323;28;20059;-75
2023/03/27 03:54:32;;;;;;;2.78;0.10;;;;;;;0.62;41.43;101346.16;5037097;28;20024;-67
2023/03/27 03:56:58;;;;;;;2.72;0.47;;;;;;;0.73;41.29;101353.13;5046472;28;20409;-68
2023/03/27 03:59:24;;;;;;;6.40;0.20;;;;;;;0.65;41.82;101351.31;5042446;28;20540;-69
2023/03/27 04:02:26;;;;;;;6.88;0.20;;;;;;;0.65;41.98;101360.75;5044550;28;20455;-72
2023/03/27 04:04:57;;;;;;;5.27;0.20;;;;;;;0.54;42.78;101358.09;5025087;28;20032;-71
2023/03/27 04:07:30;;;;;;;7.50;0.40;;;;;;;0.60;42.64;101357.28;5021230;28;20037;-70
2023/03/27 04:10:14;;;;;;;4.25;0.52;;;;;;;0.60;43.40;101365.88;5024031;28;20599;-77
2023/03/27 04:12:40;;;;;;;4.55;0.90;;;;;;;0.50;43.68;101366.63;5032280;28;20040;-75
2023/03/27 04:15:15;;;;;;;6.43;0.68;;;;;;;0.85;43.57;101359.22;5028672;28;20163;-74
2023/03/27 04:18:01;;;;;;;4.40;0.50;;;;;;;0.66;44.15;101363.34;5042931;28;20049;-74
2023/03/27 04:20:27;;;;;;;4.75;0.32;;;;;;;0.71;44.18;101367.69;5027071;28;20028;-75
2023/03/27 04:22:55;;;;;;;3.83;0.15;;;;;;;0.80;44.59;101375.47;5029752;28;20501;-72
2023/03/27 04:25:22;;;;;;;7.20;0.43;;;;;;;0.49;46.45;101375.19;5038633;28;20054;-72
2023/03/27 04:27:52;;;;;;;1.77;0.50;;;;;;;0.62;46.76;101373.59;5004128;28;20040;-72
2023/03/27 04:30:28;;;;;;;2.53;0.30;;;;;;;0.94;46.02;101384.16;5025582;28;20413;-74
2023/03/27 04:33:18;;;;;;;8.43;0.30;;;;;;;0.82;47.09;101396.94;5042948;28;20195;-74
2023/03/27 04:36:03;;;;;;;8.20;0.25;;;;;;;0.18;48.02;101403.13;5047241;28;20571;-74
2023/03/27 04:38:39;;;;;;;2.92;0.47;;;;;;;0.03;49.23;101408.09;5024213;28;20067;-75
2023/03/27 04:41:06;;;;;;;6.32;0.38;;;;;;;-0.12;49.35;101401.06;5042153;28;20043;-75
2023/03/27 04:43:38;;;;;;;2.70;0.10;;;;;;;0.09;49.62;101405.59;5044089;28;20044;-76
2023/03/27 04:46:06;;;;;;;6.82;0.22;;;;;;;0.30;48.97;101410.16;5025504;28;20024;-76
2023/03/27 04:48:37;;;;;;;1.60;0.08;;;;;;;-0.19;51.16;101410.41;5061122;28;20237;-76
2023/03/27 04:51:14;;;;;;;3.90;0.13;;;;;;;-0.36;51.67;101406.75;5014207;28;20040;-72
2023/03/27 04:53:41;;;;;;;1.13;0.10;;;;;;;-0.17;51.24;101406.16;5016479;28;20037;-74
2023/03/27 04:56:09;;;;;;;0.85;0.17;;;;;;;-0.05;50.56;101409.72;5045942;28;20649;-71
2023/03/27 04:58:39;;;;;;;2.97;0.20;;;;;;;-0.09;50.93;101413.09;5023774;28;20040;-71
2023/03/27 05:01:11;;;;;;;0.45;0.28;;;;;;;-0.09;50.61;101416.53;5033444;28;20157;-71
2023/03/27 05:03:55;;;;;;;6.38;0.17;;;;;;;-0.05;50.55;101409.72;5047844;28;20605;-70
2023/03/27 05:06:42;;;;;;;2.22;0.20;;;;;;;-0.18;50.74;101417.25;5022213;28;20059;-71
2023/03/27 05:09:11;;;;;;;5.30;0.20;;;;;;;-0.39;51.21;101412.72;5031949;28;20741;-71
2023/03/27 05:11:37;;;;;;;0.32;0.20;;;;;;;-0.19;50.78;101414.66;5047728;28;20053;-71
2023/03/27 05:14:03;;;;;;;0.45;0.00;;;;;;;-0.25;51.05;101417.16;5034258;28;20900;-71
2023/03/27 05:16:30;;;;;;;0.73;0.10;;;;;;;-0.23;50.48;101424.06;5031108;28;20032;-70
2023/03/27 05:19:01;;;;;;;3.38;0.32;;;;;;;-0.28;51.16;101423.13;5033361;28;20497;-70
2023/03/27 05:21:35;;;;;;;3.10;0.20;;;;;;;-0.22;51.05;101427.47;5024796;28;20067;-71
2023/03/27 05:24:03;;;;;;;3.95;0.73;;;;;;;-0.22;50.91;101428.34;5024116;28;20075;-70
2023/03/27 05:26:29;;;;;;;1.50;0.10;;;;;;;-0.17;50.34;101430.97;5030095;28;20121;-70
2023/03/27 05:28:58;;;;;;;2.72;0.10;;;;;;;-0.14;50.33;101433.59;5029641;28;20051;-70
2023/03/27 05:31:26;;;;;;;0.75;0.10;;;;;;;-0.18;50.16;101436.97;5035685;28;20608;-72
2023/03/27 05:34:02;;;;;;;1.60;0.30;;;;;;;-0.30;50.48;101435.09;5031783;28;20220;-70
2023/03/27 05:36:31;;;;;;;0.65;0.10;;;;;;;-0.21;50.27;101442.94;5045745;28;20608;-70
2023/03/27 05:38:57;;;;;;;2.33;0.20;;;;;;;-0.22;50.09;101445.47;5045270;28;20090;-70
2023/03/27 05:41:31;;;;;;;1.55;0.22;;;;;;;-0.15;50.05;101448.16;5046195;28;20088;-72
2023/03/27 05:43:57;;;;;;;3.20;0.10;;;;;;;0.01;49.75;101448.34;5029575;28;20069;-71
2023/03/27 05:46:23;;;;;;;2.63;0.10;;;;;;;0.12;49.20;101457.03;5032231;28;20045;-71
2023/03/27 05:48:54;;;;;;;3.50;0.05;;;;;;;0.19;49.64;101452.84;5027060;28;20036;-69
2023/03/27 05:51:21;;;;;;;8.85;1.00;;;;;;;0.38;49.81;101448.78;5033328;28;20070;-67
2023/03/27 05:53:47;;;;;;;3.47;0.10;;;;;;;0.82;49.21;101451.00;5031617;28;20116;-67
2023/03/27 05:56:23;;;;;;;5.35;0.22;;;;;;;1.35;48.82;101457.44;5031451;28;20637;-68
2023/03/27 05:59:01;;;;;;;1.73;0.55;;;;;;;1.27;48.34;101462.53;5026022;28;20442;-67
2023/03/27 06:01:27;;;;;;;2.38;0.20;;;;;;;1.55;47.74;101470.50;5046314;28;20113;-68
2023/03/27 06:03:55;;;;;;;5.03;0.25;;;;;;;1.41;47.62;101462.69;5036109;28;20044;-68
2023/03/27 06:06:26;;;;;;;3.60;0.13;;;;;;;1.29;48.02;101469.41;5037016;28;20032;-69
2023/03/27 06:08:58;;;;;;;5.35;0.10;;;;;;;1.27;48.45;101475.41;5031538;28;20048;-67
2023/03/27 06:11:24;;;;;;;3.20;0.20;;;;;;;0.88;49.09;101476.75;5048970;28;20047;-68
2023/03/27 06:13:50;;;;;;;4.57;0.10;;;;;;;1.26;47.87;101473.66;5038973;28;20123;-71
2023/03/27 06:16:20;;;;;;;3.13;0.10;;;;;;;1.34;47.68;101477.19;5031031;28;20740;-68
2023/03/27 06:18:49;;;;;;;3.35;0.00;;;;;;;1.44;47.63;101484.19;5043140;28;20072;-68
2023/03/27 06:21:16;;;;;;;6.82;0.50;;;;;;;1.54;47.42;101484.25;5014741;28;20025;-69
2023/03/27 06:23:42;;;;;;;4.40;0.10;;;;;;;1.66;47.25;101482.63;5044380;28;20125;-68
2023/03/27 06:26:10;;;;;;;2.95;0.20;;;;;;;2.30;45.77;101489.84;5025236;28;20501;-68
2023/03/27 06:28:38;;;;;;;3.75;0.20;;;;;;;2.31;45.08;101516.47;5024029;28;20036;-71
2023/03/27 06:31:05;;;;;;;4.88;0.10;;;;;;;1.25;47.26;101538.91;5029601;28;20045;-69
2023/03/27 06:33:37;;;;;;;2.10;0.10;;;;;;;0.13;49.06;101528.19;5024606;28;20037;-71
2023/03/27 06:36:05;;;;;;;0.00;0.00;;;;;;;0.13;49.20;101525.63;5029327;28;20033;-68
2023/03/27 06:38:36;;;;;;;0.57;0.00;;;;;;;-0.13;49.16;101512.38;5030106;28;20036;-69
2023/03/27 06:41:03;;;;;;;1.98;0.00;;;;;;;-0.31;49.29;101515.56;5036073;28;20072;-69
2023/03/27 06:43:47;;;;;;;5.93;0.20;;;;;;;-0.24;48.49;101513.94;5043590;28;20139;-69
2023/03/27 06:46:28;;;;;;;4.40;0.10;;;;;;;0.08;46.89;101522.13;5028355;28;20428;-71
2023/03/27 06:49:07;;;;;;;3.55;0.10;;;;;;;0.41;45.86;101528.53;5028272;28;20044;-70
2023/03/27 06:51:33;;;;;;;2.28;0.20;;;;;;;1.15;44.54;101537.09;5025406;28;20035;-70
2023/03/27 06:54:03;;;;;;;1.75;0.30;;;;;;;2.61;41.01;101535.56;5025006;28;20029;-69
2023/03/27 06:56:30;;;;;;;1.50;0.10;;;;;;;3.80;39.44;101529.69;5032326;28;20069;-70
2023/03/27 06:59:16;;;;;;;0.43;0.00;;;;;;;5.98;34.58;101525.88;5027321;28;20028;-69
2023/03/27 07:01:44;;;;;;;3.40;0.00;;;;;;;6.88;32.69;101523.94;5030693;28;20628;-70
2023/03/27 07:04:36;;;;;;;1.42;0.10;;;;;;;8.91;29.80;101525.50;5008152;28;20037;-70
2023/03/27 07:07:18;;;;;;;1.23;0.35;;;;;;;9.04;29.43;101523.47;5030620;28;20343;-71
2023/03/27 07:09:44;;;;;;;5.30;0.30;;;;;;;9.84;29.27;101523.28;5031069;28;20587;-71
2023/03/27 07:12:12;;;;;;;3.97;0.05;;;;;;;9.82;28.44;101538.13;5032066;28;20040;-71
2023/03/27 07:14:40;;;;;;;1.58;0.20;;;;;;;9.82;28.48;101535.53;5028939;28;20063;-71
2023/03/27 07:17:07;;;;;;;1.25;0.30;;;;;;;10.30;28.77;101533.31;5037317;28;20056;-69
2023/03/27 07:19:52;;;;;;;0.98;0.10;;;;;;;8.73;30.19;101537.19;5045367;28;20032;-68
2023/03/27 07:22:22;;;;;;;6.85;0.63;;;;;;;7.47;32.47;101541.28;5030293;28;20068;-68
2023/03/27 07:24:48;;;;;;;2.63;0.20;;;;;;;8.55;31.85;101542.75;5027370;28;20128;-71
2023/03/27 07:27:15;;;;;;;1.63;0.20;;;;;;;9.87;29.34;101538.88;5046927;28;20574;-70
2023/03/27 07:29:41;;;;;;;1.25;0.20;;;;;;;8.62;30.37;101536.53;5029852;28;20028;-71
2023/03/27 07:32:08;;;;;;;5.25;0.40;;;;;;;7.10;33.19;101544.44;5031850;28;20040;-69
2023/03/27 07:34:41;;;;;;;2.80;0.20;;;;;;;6.48;34.62;101545.28;5043377;28;20120;-71
2023/03/27 07:37:26;;;;;;;0.98;0.20;;;;;;;5.50;36.48;101553.97;5044964;28;20087;-69
2023/03/27 07:40:12;;;;;;;11.75;0.20;;;;;;;6.51;34.25;101544.38;5047279;28;20063;-68
2023/03/27 07:42:46;;;;;;;4.07;0.45;;;;;;;7.71;32.29;101548.69;5012782;28;20101;-71
2023/03/27 07:45:19;;;;;;;3.10;0.20;;;;;;;10.14;28.75;101543.31;5025149;28;20496;-67
2023/03/27 07:47:47;;;;;;;0.82;0.17;;;;;;;10.06;27.48;101544.44;5043142;28;20676;-70
2023/03/27 07:50:15;;;;;;;1.35;0.10;;;;;;;8.57;27.54;101543.59;5044238;28;20125;-70
2023/03/27 07:52:45;;;;;;;2.85;0.10;;;;;;;8.38;28.96;101547.47;5033046;28;20043;-71
2023/03/27 07:55:13;;;;;;;6.43;0.20;;;;;;;10.06;27.01;101555.75;5016522;28;20991;-71
2023/03/27 07:57:48;;;;;;;0.45;0.10;;;;;;;11.24;25.89;101554.03;5025755;28;20618;-71
2023/03/27 08:00:17;;;;;;;1.40;0.10;;;;;;;10.11;27.11;101561.72;5027685;28;20071;-70
2023/03/27 08:02:50;;;;;;;2.30;0.10;;;;;;;6.67;33.45;101573.59;5025729;28;20041;-70
2023/03/27 08:05:16;;;;;;;6.72;0.10;;;;;;;4.50;37.92;101584.72;5040717;28;20093;-68
2023/03/27 08:07:48;;;;;;;3.70;0.25;;;;;;;4.00;38.86;101587.44;5030094;28;20037;-68
2023/03/27 08:10:28;;;;;;;3.25;0.68;;;;;;;3.87;39.40;101590.03;5030719;28;20513;-70
2023/03/27 08:12:57;;;;;;;0.88;0.10;;;;;;;3.62;40.33;101586.59;5022397;28;20045;-69
2023/03/27 08:15:23;;;;;;;1.20;0.10;;;;;;;3.84;40.03;101583.13;5028752;28;20024;-68
2023/03/27 08:17:53;;;;;;;2.88;0.10;;;;;;;4.30;39.47;101598.59;5025639;28;20040;-71
2023/03/27 08:20:22;;;;;;;1.98;0.10;;;;;;;3.94;39.82;101597.81;5031599;28;20029;-67
2023/03/27 08:22:52;;;;;;;2.78;0.30;;;;;;;5.32;37.34;101598.19;5032826;28;20543;-69
2023/03/27 08:25:37;;;;;;;6.53;0.60;;;;;;;7.04;33.51;101586.97;5043881;28;20041;-68
2023/03/27 08:28:07;;;;;;;9.35;0.38;;;;;;;8.03;31.85;101586.31;5023966;28;20040;-70
2023/03/27 08:30:33;;;;;;;2.78;0.57;;;;;;;6.97;34.43;101582.72;5030693;28;20035;-69
2023/03/27 08:32:59;;;;;;;2.47;0.40;;;;;;;5.78;36.41;101590.94;5034331;28;20087;-68
2023/03/27 08:35:25;;;;;;;5.53;0.25;;;;;;;5.52;38.02;101603.25;5046868;28;20040;-68
2023/03/27 08:37:51;;;;;;;3.35;0.20;;;;;;;5.04;39.00;101599.22;5045956;28;20041;-71
2023/03/27 08:40:38;;;;;;;6.80;0.40;;;;;;;5.04;39.48;101604.41;5032927;28;20040;-70
2023/03/27 08:43:26;;;;;;;5.82;0.63;;;;;;;6.87;35.99;101599.34;5033092;28;20091;-68
2023/03/27 08:45:58;;;;;;;5.45;0.22;;;;;;;6.34;34.67;101599.09;5031295;28;20123;-68
2023/03/27 08:48:32;;;;;;;8.98;0.43;;;;;;;5.92;33.23;101605.53;5034775;28;20098;-70
2023/03/27 08:51:13;;;;;;;6.57;0.20;;;;;;;4.18;37.00;101608.97;5046663;28;20041;-70
2023/03/27 08:53:46;;;;;;;;;;;;;;;3.70;39.66;101626.25;5048544;28;20533;-68
2023/03/27 08:56:17;;;;;;;2.28;0.10;;;;;;;4.36;39.23;101614.13;5027705;28;20723;-71
2023/03/27 08:58:44;;;;;;;2.03;0.20;;;;;;;6.00;36.21;101614.97;5020269;28;20729;-69
2023/03/27 09:01:32;;;;;;;4.10;0.30;;;;;;;7.16;33.04;101617.16;5028952;28;20496;-69
2023/03/27 09:04:30;;;;;;;5.97;0.10;;;;;;;7.08;33.06;101611.19;5031433;28;20176;-68
2023/03/27 09:07:24;;;;;;;6.78;0.50;;;;;;;7.98;31.97;101614.19;5038931;28;20135;-69
2023/03/27 09:10:32;;;;;;;4.63;0.30;;;;;;;7.48;31.63;101623.63;5044994;28;20045;-70
2023/03/27 09:13:11;;;;;;;5.25;0.45;;;;;;;5.51;34.33;101637.84;5022077;28;20045;-70
2023/03/27 09:15:50;;;;;;;4.85;0.30;;;;;;;3.73;40.85;101676.22;5046865;28;20044;-70
2023/03/27 09:18:22;;;;;;;3.80;0.17;;;;;;;2.47;43.64;101680.00;5029115;28;20040;-69
2023/03/27 09:20:55;;;;;;;5.65;0.40;;;;;;;1.98;45.30;101685.66;5046353;28;20032;-68
2023/03/27 09:23:33;;;;;;;1.55;0.30;;;;;;;1.72;46.30;101680.25;5047724;28;20033;-70
2023/03/27 09:26:21;;;;;;;4.10;0.22;;;;;;;1.76;46.48;101681.16;5047276;28;20120;-69
2023/03/27 09:29:19;;;;;;;5.90;0.20;;;;;;;1.71;47.01;101681.09;5045533;28;20040;-70
2023/03/27 09:31:50;;;;;;;0.88;0.40;;;;;;;1.64;47.55;101681.88;5029948;28;20032;-71
2023/03/27 09:34:25;;;;;;;3.17;0.82;;;;;;;2.46;46.74;101681.69;5026220;28;20033;-68
2023/03/27 09:36:53;;;;;;;7.57;0.52;;;;;;;3.57;43.84;101671.91;5040087;28;20059;-68
2023/03/27 09:39:26;;;;;;;1.00;0.00;;;;;;;4.46;39.97;101676.22;5027420;28;20040;-70
2023/03/27 09:42:09;;;;;;;0.65;0.00;;;;;;;4.57;40.02;101677.06;5028668;28;20480;-69
2023/03/27 09:44:41;;;;;;;0.30;0.00;;;;;;;4.08;39.41;101682.31;5031311;28;20523;-70
2023/03/27 09:47:13;;;;;;;1.70;0.10;;;;;;;4.73;38.52;101685.66;5026613;28;20058;-67
2023/03/27 09:49:44;;;;;;;0.90;0.10;;;;;;;4.70;37.50;101686.53;5033123;28;20024;-70
2023/03/27 09:52:36;;;;;;;3.10;0.10;;;;;;;4.50;37.09;101683.09;5028426;28;20109;-71
2023/03/27 09:55:30;;;;;;;5.32;0.10;;;;;;;5.51;36.82;101687.97;5043799;28;20036;-70
2023/03/27 09:58:12;;;;;;;2.58;0.10;;;;;;;5.40;36.26;101681.97;5024109;28;20213;-67
2023/03/27 10:00:40;;;;;;;3.72;0.20;;;;;;;5.00;36.75;101684.75;5031789;28;20024;-67
2023/03/27 10:03:13;;;;;;;0.32;0.00;;;;;;;5.39;35.61;101678.53;5045052;28;20544;-68
2023/03/27 10:05:41;;;;;;;3.80;0.17;;;;;;;5.32;35.80;101691.50;5031922;28;20040;-68
2023/03/27 10:08:30;;;;;;;1.58;0.10;;;;;;;6.05;34.82;101680.66;5029715;28;20036;-70
2023/03/27 10:11:07;;;;;;;3.45;0.13;;;;;;;5.86;34.63;101689.47;5024788;28;20032;-70
2023/03/27 10:13:48;;;;;;;3.40;0.30;;;;;;;6.07;36.17;101696.22;5045892;28;20037;-70
2023/03/27 10:16:20;;;;;;;3.03;0.60;;;;;;;6.43;34.42;101695.06;5031985;28;20072;-70
2023/03/27 10:18:59;;;;;;;2.63;0.40;;;;;;;6.39;34.14;101693.38;5031134;28;20041;-69
2023/03/27 10:21:27;;;;;;;3.47;0.00;;;;;;;6.27;34.22;101696.91;5024034;28;20035;-70
2023/03/27 10:24:26;;;;;;;1.08;0.08;;;;;;;6.17;34.53;101699.59;5022766;28;20048;-70
2023/03/27 10:27:20;;;;;;;9.70;0.68;;;;;;;7.41;33.17;101700.03;5044747;28;20041;-70
2023/03/27 10:30:24;;;;;;;4.60;0.20;;;;;;;8.36;33.08;101693.38;5043048;28;20135;-70
2023/03/27 10:32:51;;;;;;;4.70;0.10;;;;;;;8.09;31.56;101703.38;5029372;28;20145;-69
2023/03/27 10:35:44;;;;;;;3.47;0.20;;;;;;;5.14;37.16;101745.13;5043460;28;20210;-69
2023/03/27 10:38:16;;;;;;;;;;;;;;;4.40;39.67;101759.91;5026678;28;20098;-69
2023/03/27 10:41:12;;;;;;;4.28;0.00;;;;;;;3.00;42.67;101782.72;5032321;28;19928;-68
2023/03/27 10:43:45;;;;;;;3.95;0.10;;;;;;;2.43;44.28;101769.41;5042030;28;20037;-69
2023/03/27 10:46:15;;;;;;;1.30;0.10;;;;;;;2.26;43.18;101758.09;5046043;28;20042;-68
2023/03/27 10:48:50;;;;;;;4.40;0.10;;;;;;;3.36;42.65;101756.28;5040473;28;20083;-69
2023/03/27 10:51:23;;;;;;;1.55;0.05;;;;;;;4.11;40.88;101752.16;5030670;28;20034;-69
2023/03/27 10:54:06;;;;;;;0.77;0.10;;;;;;;5.03;38.73;101749.50;5031343;28;20032;-68
2023/03/27 10:56:57;;;;;;;0.63;0.00;;;;;;;5.91;36.52;101739.59;5025146;28;20567;-69
2023/03/27 10:59:29;;;;;;;0.60;0.10;;;;;;;6.71;36.04;101744.16;5030915;28;20613;-69
2023/03/27 11:02:03;;;;;;;1.33;0.10;;;;;;;6.39;35.67;101741.84;5010401;28;20129;-68
2023/03/27 11:04:52;;;;;;;3.88;0.43;;;;;;;6.82;35.43;101737.13;5020568;28;20033;-68
2023/03/27 11:07:32;;;;;;;10.05;0.30;;;;;;;6.67;35.45;101738.13;5023013;28;20125;-68
2023/03/27 11:10:17;;;;;;;4.30;0.10;;;;;;;7.03;35.94;101750.75;5043511;28;20643;-69
2023/03/27 11:13:00;;;;;;;2.72;0.22;;;;;;;7.16;32.85;101739.34;5026220;28;20174;-69
2023/03/27 11:15:34;;;;;;;3.47;0.45;;;;;;;7.75;32.98;101744.66;5038447;28;20051;-68
2023/03/27 11:18:10;;;;;;;6.35;0.20;;;;;;;6.08;34.05;101752.44;5019059;28;20051;-69
2023/03/27 11:20:58;;;;;;;4.45;0.30;;;;;;;5.29;35.19;101744.22;5027313;28;20028;-67
2023/03/27 11:24:16;;;;;;;2.38;0.10;;;;;;;5.47;36.05;101753.66;5026557;28;20039;-68
2023/03/27 11:27:26;;;;;;;6.85;0.80;;;;;;;5.84;36.51;101769.03;5027393;28;20555;-69
2023/03/27 11:30:10;;;;;;;3.80;0.50;;;;;;;3.75;42.63;101796.03;5025354;28;20060;-68
2023/03/27 11:33:14;;;;;;;1.65;0.10;;;;;;;1.69;48.13;101820.25;5030207;28;20050;-69
2023/03/27 11:35:48;;;;;;;1.00;0.10;;;;;;;0.37;51.18;101846.56;5028863;28;20024;-66
2023/03/27 11:38:38;;;;;;;6.80;0.20;;;;;;;0.05;53.06;101843.38;5040334;28;20048;-66
2023/03/27 11:41:05;;;;;;;3.83;0.22;;;;;;;-0.48;55.27;101843.16;5028606;28;20143;-65
2023/03/27 11:43:36;;;;;;;1.33;0.00;;;;;;;0.28;54.42;101823.25;5031468;28;20128;-67
2023/03/27 11:46:20;;;;;;;1.17;0.10;;;;;;;0.75;53.76;101819.72;5025792;28;20075;-69
2023/03/27 11:49:09;;;;;;;2.22;0.10;;;;;;;1.63;53.33;101819.31;5042283;28;20033;-68
2023/03/27 11:51:56;;;;;;;0.32;0.00;;;;;;;2.56;50.35;101811.69;5012018;28;20044;-67
2023/03/27 11:54:35;;;;;;;2.92;0.52;;;;;;;3.66;48.01;101810.66;5042806;28;20040;-68
2023/03/27 11:57:21;;;;;;;1.15;0.15;;;;;;;4.52;46.81;101800.47;5043534;28;20056;-68
2023/03/27 12:00:17;;;;;;;3.85;0.25;;;;;;;5.54;45.30;101790.81;5048532;28;20036;-68
2023/03/27 12:03:28;;;;;;;6.00;0.10;;;;;;;5.77;44.24;101781.19;5049593;28;20043;-68
2023/03/27 12:06:04;;;;;;;2.30;0.20;;;;;;;4.06;42.57;101790.94;4943864;28;20042;-68
2023/03/27 12:08:54;;;;;;;3.00;0.20;;;;;;;3.90;43.23;101790.06;4940383;28;20038;-67
2023/03/27 12:11:22;;;;;;;3.72;0.15;;;;;;;4.53;42.02;101797.03;5012409;28;20040;-68